KDXR/DXR METAR and TAF weather

Enter ICAO airport designator
Station Type Date Time Source
KDXR METAR 2020/07/02 17:53 UTC NOAA

KDXR 021753Z COR 30007KT 290V340 10SM CLR 29/18 A2983


Station Type Date Time Source
KDXR Decoded METAR 2020/07/02 17:53 UTC NOAA

DANBURY MUNICIPAL AIRPORT, CT, United States (KDXR) 41-22N 073-29W 139M
Jul 02, 2020 - 01:53 PM EDT / 2020.07.02 1753 UTC
Wind: from the WNW (300 degrees) at 8 MPH (7 KT) (direction variable):0
Visibility: 10 mile(s):0
Sky conditions: clear
Temperature: 84 F (29 C)
Dew Point: 64 F (18 C)
Relative Humidity: 51%
Pressure (altimeter): 29.83 in. Hg (1010 hPa)
ob: KDXR 021753Z COR 30007KT 290V340 10SM CLR 29/18 A2983
cycle: 18

Station Type Date Time Source
KDXR TAF UTC NOAA

Error!

Example: see airport list